sensor_id;sensor_type;location;lat;lon;timestamp;temperature;humidity
11619;DHT22;5865;48.776;9.280;2024-01-30T00:01:13;0.60;99.90
11619;DHT22;5865;48.776;9.280;2024-01-30T00:06:07;0.60;99.90
11619;DHT22;5865;48.776;9.280;2024-01-30T00:08:36;0.50;99.90
11619;DHT22;5865;48.776;9.280;2024-01-30T00:11:03;0.50;99.90
11619;DHT22;5865;48.776;9.280;2024-01-30T00:20:51;0.50;99.90
11619;DHT22;5865;48.776;9.280;2024-01-30T00:28:15;0.50;99.90
11619;DHT22;5865;48.776;9.280;2024-01-30T00:30:42;0.50;99.90
11619;DHT22;5865;48.776;9.280;2024-01-30T00:45:29;0.50;99.90
11619;DHT22;5865;48.776;9.280;2024-01-30T01:07:38;0.80;99.90
11619;DHT22;5865;48.776;9.280;2024-01-30T01:10:06;0.80;99.90
11619;DHT22;5865;48.776;9.280;2024-01-30T01:12:34;0.80;99.90
11619;DHT22;5865;48.776;9.280;2024-01-30T01:32:14;0.70;99.90
11619;DHT22;5865;48.776;9.280;2024-01-30T01:42:06;0.60;99.90
11619;DHT22;5865;48.776;9.280;2024-01-30T01:51:58;0.50;99.90
11619;DHT22;5865;48.776;9.280;2024-01-30T01:54:26;0.40;99.90
11619;DHT22;5865;48.776;9.280;2024-01-30T03:33:10;-0.60;99.90
11619;DHT22;5865;48.776;9.280;2024-01-30T03:38:04;-0.70;99.90
11619;DHT22;5865;48.776;9.280;2024-01-30T03:40:30;2.30;99.90
11619;DHT22;5865;48.776;9.280;2024-01-30T03:42:57;-0.70;99.90
11619;DHT22;5865;48.776;9.280;2024-01-30T03:45:24;-0.60;99.90
11619;DHT22;5865;48.776;9.280;2024-01-30T03:50:20;-0.60;99.90
11619;DHT22;5865;48.776;9.280;2024-01-30T04:00:09;-0.60;99.90
11619;DHT22;5865;48.776;9.280;2024-01-30T04:02:39;-0.70;99.90
11619;DHT22;5865;48.776;9.280;2024-01-30T04:05:08;-0.60;99.90
11619;DHT22;5865;48.776;9.280;2024-01-30T04:07:35;-0.60;99.90
11619;DHT22;5865;48.776;9.280;2024-01-30T04:10:02;-0.60;99.90
11619;DHT22;5865;48.776;9.280;2024-01-30T04:12:31;-0.60;99.90
11619;DHT22;5865;48.776;9.280;2024-01-30T04:14:58;-0.60;99.90
11619;DHT22;5865;48.776;9.280;2024-01-30T04:17:24;-0.70;99.90
11619;DHT22;5865;48.776;9.280;2024-01-30T04:19:51;-0.70;99.90
11619;DHT22;5865;48.776;9.280;2024-01-30T04:22:19;-0.70;99.90
11619;DHT22;5865;48.776;9.280;2024-01-30T04:27:14;-0.60;99.90
11619;DHT22;5865;48.776;9.280;2024-01-30T04:32:08;-0.60;99.90
11619;DHT22;5865;48.776;9.280;2024-01-30T04:37:03;-0.70;99.90
11619;DHT22;5865;48.776;9.280;2024-01-30T04:39:32;-0.60;99.90
11619;DHT22;5865;48.776;9.280;2024-01-30T04:41:59;-0.60;99.90
11619;DHT22;5865;48.776;9.280;2024-01-30T04:54:19;-0.80;99.90
11619;DHT22;5865;48.776;9.280;2024-01-30T04:56:47;-0.80;99.90
11619;DHT22;5865;48.776;9.280;2024-01-30T04:59:14;-0.70;99.90
11619;DHT22;5865;48.776;9.280;2024-01-30T05:01:41;-0.70;99.90
11619;DHT22;5865;48.776;9.280;2024-01-30T05:04:08;-0.80;99.90
11619;DHT22;5865;48.776;9.280;2024-01-30T05:06:35;-0.80;99.90
11619;DHT22;5865;48.776;9.280;2024-01-30T05:09:02;-0.80;99.90
11619;DHT22;5865;48.776;9.280;2024-01-30T05:11:30;-0.90;99.90
11619;DHT22;5865;48.776;9.280;2024-01-30T05:13:58;-0.90;99.90
11619;DHT22;5865;48.776;9.280;2024-01-30T05:16:25;-0.90;99.90
11619;DHT22;5865;48.776;9.280;2024-01-30T05:18:52;-0.90;99.90
11619;DHT22;5865;48.776;9.280;2024-01-30T05:36:06;-1.00;99.90
11619;DHT22;5865;48.776;9.280;2024-01-30T06:08:17;-0.80;99.90
11619;DHT22;5865;48.776;9.280;2024-01-30T06:18:10;-0.70;99.90
11619;DHT22;5865;48.776;9.280;2024-01-30T06:35:23;-0.90;99.90
11619;DHT22;5865;48.776;9.280;2024-01-30T06:57:34;-1.10;99.90
11619;DHT22;5865;48.776;9.280;2024-01-30T07:00:01;-1.10;99.90
11619;DHT22;5865;48.776;9.280;2024-01-30T07:09:50;-1.00;99.90
11619;DHT22;5865;48.776;9.280;2024-01-30T07:17:19;-0.90;99.90
11619;DHT22;5865;48.776;9.280;2024-01-30T07:22:13;-0.50;99.90
11619;DHT22;5865;48.776;9.280;2024-01-30T07:24:42;-0.50;99.90
11619;DHT22;5865;48.776;9.280;2024-01-30T07:27:12;-0.60;99.90
11619;DHT22;5865;48.776;9.280;2024-01-30T07:29:40;-0.50;99.90
11619;DHT22;5865;48.776;9.280;2024-01-30T07:34:35;-0.40;99.90
11619;DHT22;5865;48.776;9.280;2024-01-30T07:37:03;-0.30;99.90
11619;DHT22;5865;48.776;9.280;2024-01-30T07:41:57;-0.20;99.90
11619;DHT22;5865;48.776;9.280;2024-01-30T07:44:24;-0.10;99.90
11619;DHT22;5865;48.776;9.280;2024-01-30T07:46:51;0.00;99.90
11619;DHT22;5865;48.776;9.280;2024-01-30T07:49:22;0.10;99.90
11619;DHT22;5865;48.776;9.280;2024-01-30T07:54:17;0.30;99.90
11619;DHT22;5865;48.776;9.280;2024-01-30T07:56:44;0.40;99.90
11619;DHT22;5865;48.776;9.280;2024-01-30T08:04:05;0.80;99.90
11619;DHT22;5865;48.776;9.280;2024-01-30T08:06:33;0.90;99.90
11619;DHT22;5865;48.776;9.280;2024-01-30T08:09:00;0.90;99.90
11619;DHT22;5865;48.776;9.280;2024-01-30T08:11:28;1.10;99.90
11619;DHT22;5865;48.776;9.280;2024-01-30T08:13:55;1.20;99.90
11619;DHT22;5865;48.776;9.280;2024-01-30T08:16:22;1.20;99.90
11619;DHT22;5865;48.776;9.280;2024-01-30T08:21:18;1.70;99.90
11619;DHT22;5865;48.776;9.280;2024-01-30T08:23:47;2.00;99.90
11619;DHT22;5865;48.776;9.280;2024-01-30T08:26:14;2.10;99.90
11619;DHT22;5865;48.776;9.280;2024-01-30T08:31:10;2.80;99.90
11619;DHT22;5865;48.776;9.280;2024-01-30T08:33:37;2.90;99.90
11619;DHT22;5865;48.776;9.280;2024-01-30T08:36:04;3.20;99.90
11619;DHT22;5865;48.776;9.280;2024-01-30T08:38:31;3.20;99.90
11619;DHT22;5865;48.776;9.280;2024-01-30T08:40:59;3.40;99.90
11619;DHT22;5865;48.776;9.280;2024-01-30T08:43:26;3.50;99.90
11619;DHT22;5865;48.776;9.280;2024-01-30T08:45:53;3.60;99.90
11619;DHT22;5865;48.776;9.280;2024-01-30T08:48:20;3.60;99.90
11619;DHT22;5865;48.776;9.280;2024-01-30T08:50:48;3.70;99.90
11619;DHT22;5865;48.776;9.280;2024-01-30T08:58:15;4.40;99.90
11619;DHT22;5865;48.776;9.280;2024-01-30T09:05:38;4.70;99.90
11619;DHT22;5865;48.776;9.280;2024-01-30T09:08:05;5.00;99.90
11619;DHT22;5865;48.776;9.280;2024-01-30T09:10:32;5.10;99.90
11619;DHT22;5865;48.776;9.280;2024-01-30T09:15:27;5.40;99.90
11619;DHT22;5865;48.776;9.280;2024-01-30T09:17:54;5.50;99.90
11619;DHT22;5865;48.776;9.280;2024-01-30T09:22:48;5.90;99.90
11619;DHT22;5865;48.776;9.280;2024-01-30T09:25:15;6.00;99.90
11619;DHT22;5865;48.776;9.280;2024-01-30T09:27:44;6.10;99.90
11619;DHT22;5865;48.776;9.280;2024-01-30T09:32:41;6.40;99.90
11619;DHT22;5865;48.776;9.280;2024-01-30T09:35:09;6.80;99.90
11619;DHT22;5865;48.776;9.280;2024-01-30T09:37:35;6.80;99.90
11619;DHT22;5865;48.776;9.280;2024-01-30T09:40:03;7.20;99.90
11619;DHT22;5865;48.776;9.280;2024-01-30T09:42:34;7.20;99.90
11619;DHT22;5865;48.776;9.280;2024-01-30T09:45:02;7.10;99.90
11619;DHT22;5865;48.776;9.280;2024-01-30T09:50:01;7.30;99.90
11619;DHT22;5865;48.776;9.280;2024-01-30T09:52:31;7.50;99.90
11619;DHT22;5865;48.776;9.280;2024-01-30T09:54:59;7.40;99.90
11619;DHT22;5865;48.776;9.280;2024-01-30T10:02:21;7.70;99.90
11619;DHT22;5865;48.776;9.280;2024-01-30T10:04:50;8.10;99.90
11619;DHT22;5865;48.776;9.280;2024-01-30T10:07:19;8.00;99.90
11619;DHT22;5865;48.776;9.280;2024-01-30T10:09:46;8.30;99.90
11619;DHT22;5865;48.776;9.280;2024-01-30T10:17:08;8.70;99.90
11619;DHT22;5865;48.776;9.280;2024-01-30T10:22:09;8.80;99.90
11619;DHT22;5865;48.776;9.280;2024-01-30T10:27:06;8.80;99.90
11619;DHT22;5865;48.776;9.280;2024-01-30T10:32:04;8.70;99.90
11619;DHT22;5865;48.776;9.280;2024-01-30T10:37:04;9.30;99.90
11619;DHT22;5865;48.776;9.280;2024-01-30T10:52:03;9.50;99.90
11619;DHT22;5865;48.776;9.280;2024-01-30T11:07:13;10.90;99.90
11619;DHT22;5865;48.776;9.280;2024-01-30T11:12:12;10.90;99.90
11619;DHT22;5865;48.776;9.280;2024-01-30T11:32:05;12.10;99.90
11619;DHT22;5865;48.776;9.280;2024-01-30T11:37:03;12.40;99.90
11619;DHT22;5865;48.776;9.280;2024-01-30T11:47:04;12.10;99.90
11619;DHT22;5865;48.776;9.280;2024-01-30T12:44:07;13.60;99.90
11619;DHT22;5865;48.776;9.280;2024-01-30T13:21:07;9.80;99.90
11619;DHT22;5865;48.776;9.280;2024-01-30T14:15:27;13.00;99.90
11619;DHT22;5865;48.776;9.280;2024-01-30T14:40:07;13.00;99.90
11619;DHT22;5865;48.776;9.280;2024-01-30T15:00:04;12.40;99.90
11619;DHT22;5865;48.776;9.280;2024-01-30T15:02:31;12.30;99.90
11619;DHT22;5865;48.776;9.280;2024-01-30T15:04:59;12.30;99.90
11619;DHT22;5865;48.776;9.280;2024-01-30T15:07:26;12.00;99.90
11619;DHT22;5865;48.776;9.280;2024-01-30T15:09:55;12.00;99.90
11619;DHT22;5865;48.776;9.280;2024-01-30T15:12:22;11.70;99.90
11619;DHT22;5865;48.776;9.280;2024-01-30T15:14:49;11.50;99.90
11619;DHT22;5865;48.776;9.280;2024-01-30T15:17:17;11.50;99.90
11619;DHT22;5865;48.776;9.280;2024-01-30T15:19:44;11.30;99.90
11619;DHT22;5865;48.776;9.280;2024-01-30T15:22:11;11.00;99.90
11619;DHT22;5865;48.776;9.280;2024-01-30T15:24:38;10.80;99.90
11619;DHT22;5865;48.776;9.280;2024-01-30T15:27:06;10.80;99.90
11619;DHT22;5865;48.776;9.280;2024-01-30T15:32:01;10.60;99.90
11619;DHT22;5865;48.776;9.280;2024-01-30T15:34:28;10.40;99.90
11619;DHT22;5865;48.776;9.280;2024-01-30T15:36:55;10.30;99.90
11619;DHT22;5865;48.776;9.280;2024-01-30T15:39:22;10.30;99.90
11619;DHT22;5865;48.776;9.280;2024-01-30T15:41:49;10.00;99.90
11619;DHT22;5865;48.776;9.280;2024-01-30T15:44:17;9.90;99.90
11619;DHT22;5865;48.776;9.280;2024-01-30T15:46:45;9.90;99.90
11619;DHT22;5865;48.776;9.280;2024-01-30T15:49:14;9.60;99.90
11619;DHT22;5865;48.776;9.280;2024-01-30T15:51:41;9.60;99.90
11619;DHT22;5865;48.776;9.280;2024-01-30T15:54:08;9.20;99.90
11619;DHT22;5865;48.776;9.280;2024-01-30T15:56:35;9.20;99.90
11619;DHT22;5865;48.776;9.280;2024-01-30T15:59:02;9.20;99.90
11619;DHT22;5865;48.776;9.280;2024-01-30T16:01:31;8.80;99.90
11619;DHT22;5865;48.776;9.280;2024-01-30T16:03:57;8.80;99.90
11619;DHT22;5865;48.776;9.280;2024-01-30T16:06:24;8.70;99.90
11619;DHT22;5865;48.776;9.280;2024-01-30T16:08:51;8.50;99.90
11619;DHT22;5865;48.776;9.280;2024-01-30T16:11:18;8.30;99.90
11619;DHT22;5865;48.776;9.280;2024-01-30T16:13:45;8.30;99.90
11619;DHT22;5865;48.776;9.280;2024-01-30T16:16:16;8.20;99.90
11619;DHT22;5865;48.776;9.280;2024-01-30T16:18:45;8.20;99.90
11619;DHT22;5865;48.776;9.280;2024-01-30T16:23:40;7.90;99.90
11619;DHT22;5865;48.776;9.280;2024-01-30T16:26:07;7.80;99.90
11619;DHT22;5865;48.776;9.280;2024-01-30T16:28:34;7.70;99.90
11619;DHT22;5865;48.776;9.280;2024-01-30T16:31:02;7.60;99.90
11619;DHT22;5865;48.776;9.280;2024-01-30T16:33:30;7.60;99.90
11619;DHT22;5865;48.776;9.280;2024-01-30T16:35:59;7.40;99.90
11619;DHT22;5865;48.776;9.280;2024-01-30T16:38:26;7.40;99.90
11619;DHT22;5865;48.776;9.280;2024-01-30T16:40:53;7.30;99.90
11619;DHT22;5865;48.776;9.280;2024-01-30T16:43:20;7.20;99.90
11619;DHT22;5865;48.776;9.280;2024-01-30T16:45:47;7.10;99.90
11619;DHT22;5865;48.776;9.280;2024-01-30T16:48:15;7.10;99.90
11619;DHT22;5865;48.776;9.280;2024-01-30T16:50:43;7.00;99.90
11619;DHT22;5865;48.776;9.280;2024-01-30T16:53:12;7.00;99.90
11619;DHT22;5865;48.776;9.280;2024-01-30T16:55:39;6.90;99.90
11619;DHT22;5865;48.776;9.280;2024-01-30T17:00:34;6.90;99.90
11619;DHT22;5865;48.776;9.280;2024-01-30T17:03:01;6.90;99.90
11619;DHT22;5865;48.776;9.280;2024-01-30T17:05:28;6.80;99.90
11619;DHT22;5865;48.776;9.280;2024-01-30T17:07:55;6.90;99.90
11619;DHT22;5865;48.776;9.280;2024-01-30T17:10:25;6.90;99.90
11619;DHT22;5865;48.776;9.280;2024-01-30T17:12:52;6.90;99.90
11619;DHT22;5865;48.776;9.280;2024-01-30T17:15:19;6.80;99.90
11619;DHT22;5865;48.776;9.280;2024-01-30T17:17:46;6.80;99.90
11619;DHT22;5865;48.776;9.280;2024-01-30T17:20:13;6.90;99.90
11619;DHT22;5865;48.776;9.280;2024-01-30T17:22:40;6.90;99.90
11619;DHT22;5865;48.776;9.280;2024-01-30T17:25:07;6.80;99.90
11619;DHT22;5865;48.776;9.280;2024-01-30T17:27:35;6.80;99.90
11619;DHT22;5865;48.776;9.280;2024-01-30T17:30:03;6.90;99.90
11619;DHT22;5865;48.776;9.280;2024-01-30T17:32:30;6.80;99.90
11619;DHT22;5865;48.776;9.280;2024-01-30T17:34:57;6.80;99.90
11619;DHT22;5865;48.776;9.280;2024-01-30T17:37:24;6.80;99.90
11619;DHT22;5865;48.776;9.280;2024-01-30T17:40:08;6.80;99.90
11619;DHT22;5865;48.776;9.280;2024-01-30T17:42:36;6.80;99.90
11619;DHT22;5865;48.776;9.280;2024-01-30T17:45:04;6.80;99.90
11619;DHT22;5865;48.776;9.280;2024-01-30T17:47:31;6.80;99.90
11619;DHT22;5865;48.776;9.280;2024-01-30T17:52:25;6.90;99.90
11619;DHT22;5865;48.776;9.280;2024-01-30T17:54:52;6.90;99.90
11619;DHT22;5865;48.776;9.280;2024-01-30T17:57:19;6.80;99.90
11619;DHT22;5865;48.776;9.280;2024-01-30T17:59:48;6.70;99.90
11619;DHT22;5865;48.776;9.280;2024-01-30T18:02:15;6.80;99.90
11619;DHT22;5865;48.776;9.280;2024-01-30T18:04:42;6.80;99.90
11619;DHT22;5865;48.776;9.280;2024-01-30T18:07:09;6.80;99.90
11619;DHT22;5865;48.776;9.280;2024-01-30T18:09:37;6.90;99.90
11619;DHT22;5865;48.776;9.280;2024-01-30T18:12:04;6.90;99.90
11619;DHT22;5865;48.776;9.280;2024-01-30T18:14:32;6.90;99.90
11619;DHT22;5865;48.776;9.280;2024-01-30T18:17:00;6.90;99.90
11619;DHT22;5865;48.776;9.280;2024-01-30T18:19:27;6.90;99.90
11619;DHT22;5865;48.776;9.280;2024-01-30T18:21:54;6.80;99.90
11619;DHT22;5865;48.776;9.280;2024-01-30T18:24:21;6.90;99.90
11619;DHT22;5865;48.776;9.280;2024-01-30T18:26:50;6.70;99.90
11619;DHT22;5865;48.776;9.280;2024-01-30T18:29:17;6.60;99.90
11619;DHT22;5865;48.776;9.280;2024-01-30T18:31:44;6.70;99.90
11619;DHT22;5865;48.776;9.280;2024-01-30T18:34:12;6.80;99.90
11619;DHT22;5865;48.776;9.280;2024-01-30T18:36:39;6.80;99.90
11619;DHT22;5865;48.776;9.280;2024-01-30T18:39:08;6.90;99.90
11619;DHT22;5865;48.776;9.280;2024-01-30T18:41:35;6.90;99.90
11619;DHT22;5865;48.776;9.280;2024-01-30T18:44:02;6.90;99.90
11619;DHT22;5865;48.776;9.280;2024-01-30T18:46:29;7.00;99.90
11619;DHT22;5865;48.776;9.280;2024-01-30T18:48:56;7.00;99.90
11619;DHT22;5865;48.776;9.280;2024-01-30T18:51:25;7.00;99.90
11619;DHT22;5865;48.776;9.280;2024-01-30T18:53:52;6.90;99.90
11619;DHT22;5865;48.776;9.280;2024-01-30T18:56:19;6.90;99.90
11619;DHT22;5865;48.776;9.280;2024-01-30T18:58:46;7.00;99.90
11619;DHT22;5865;48.776;9.280;2024-01-30T19:01:13;6.90;99.90
11619;DHT22;5865;48.776;9.280;2024-01-30T19:03:40;6.90;99.90
11619;DHT22;5865;48.776;9.280;2024-01-30T19:06:06;6.90;99.90
11619;DHT22;5865;48.776;9.280;2024-01-30T19:08:37;6.90;99.90
11619;DHT22;5865;48.776;9.280;2024-01-30T19:11:04;6.90;99.90
11619;DHT22;5865;48.776;9.280;2024-01-30T19:13:31;7.00;99.90
11619;DHT22;5865;48.776;9.280;2024-01-30T19:15:58;6.90;99.90
11619;DHT22;5865;48.776;9.280;2024-01-30T19:18:24;6.90;99.90
11619;DHT22;5865;48.776;9.280;2024-01-30T19:20:52;6.80;99.90
11619;DHT22;5865;48.776;9.280;2024-01-30T19:25:48;6.90;99.90
11619;DHT22;5865;48.776;9.280;2024-01-30T19:28:14;6.90;99.90
